Time;durP1;ratioP1;P1;durP2;ratioP2;P2;SDS_P1;SDS_P2;PMS_P1;PMS_P2;Temp;Humidity;BMP_temperature;BMP_pressure;BME280_temperature;BME280_humidity;BME280_pressure;Samples;Min_cycle;Max_cycle;Signal;HPM_P1;HPM_P2
2021/10/22 00:00:14;;;;;;;10.82;1.77;;;7.70;99.90;;;;;;4929557;29;20078;-93
2021/10/22 00:02:40;;;;;;;4.85;1.38;;;7.70;99.90;;;;;;4921867;29;20036;-91
2021/10/22 00:05:06;;;;;;;11.10;1.20;;;7.60;99.90;;;;;;4938287;29;20022;-94
2021/10/22 00:07:32;;;;;;;9.52;1.05;;;7.70;99.90;;;;;;4921142;29;20039;-92
2021/10/22 00:09:57;;;;;;;6.40;0.77;;;7.70;99.90;;;;;;4921215;29;20110;-93
2021/10/22 00:12:23;;;;;;;11.55;1.33;;;7.70;99.90;;;;;;4920846;29;20036;-93
2021/10/22 00:14:49;;;;;;;3.10;0.77;;;7.70;99.90;;;;;;4921240;29;20087;-93
2021/10/22 00:17:15;;;;;;;9.82;0.90;;;7.70;99.90;;;;;;4921107;29;20040;-93
2021/10/22 00:19:41;;;;;;;8.82;1.25;;;7.80;99.90;;;;;;4920674;29;20030;-94
2021/10/22 00:22:06;;;;;;;4.63;0.88;;;7.70;99.90;;;;;;4921092;29;20363;-91
2021/10/22 00:24:32;;;;;;;6.03;1.42;;;7.70;99.90;;;;;;4921110;29;20051;-92
2021/10/22 00:26:58;;;;;;;9.88;1.25;;;7.70;99.90;;;;;;4921106;29;20043;-94
2021/10/22 00:29:24;;;;;;;13.43;1.45;;;7.70;99.90;;;;;;4921095;29;20366;-93
2021/10/22 00:31:50;;;;;;;12.90;1.95;;;7.80;99.90;;;;;;4920639;29;20044;-91
2021/10/22 00:34:15;;;;;;;5.47;1.05;;;7.80;99.90;;;;;;4905003;29;20032;-91
2021/10/22 00:36:41;;;;;;;8.95;1.98;;;7.80;99.90;;;;;;4920070;29;20047;-92
2021/10/22 00:39:07;;;;;;;4.90;1.05;;;7.80;99.90;;;;;;4920296;29;20020;-93
2021/10/22 00:41:34;;;;;;;7.10;1.45;;;7.90;99.90;;;;;;4920680;29;20028;-93
2021/10/22 00:44:00;;;;;;;5.05;1.20;;;7.90;99.90;;;;;;4921107;29;20032;-92
2021/10/22 00:46:29;;;;;;;8.68;1.30;;;7.90;99.90;;;;;;4933817;29;20070;-93
2021/10/22 00:48:57;;;;;;;13.30;1.90;;;8.00;99.90;;;;;;4921184;29;20024;-94
2021/10/22 00:51:23;;;;;;;3.38;0.70;;;8.00;99.90;;;;;;4920655;29;20035;-93
2021/10/22 00:53:49;;;;;;;9.45;1.25;;;8.00;99.90;;;;;;4920398;29;20473;-92
2021/10/22 00:56:14;;;;;;;8.60;1.35;;;8.00;99.90;;;;;;4920054;29;20055;-94
2021/10/22 00:58:41;;;;;;;11.07;1.35;;;8.10;99.90;;;;;;4920104;29;20035;-93
2021/10/22 01:01:07;;;;;;;2.92;0.80;;;8.10;99.90;;;;;;4919970;29;20126;-92
2021/10/22 01:03:33;;;;;;;5.32;1.40;;;8.10;99.90;;;;;;4920102;29;20058;-93
2021/10/22 01:06:00;;;;;;;7.70;1.40;;;8.00;99.90;;;;;;4919749;29;20023;-92
2021/10/22 01:08:29;;;;;;;11.88;1.80;;;8.00;99.90;;;;;;4919764;29;20016;-93
2021/10/22 01:10:55;;;;;;;10.85;2.17;;;8.00;99.90;;;;;;4919694;29;20481;-91
2021/10/22 01:13:20;;;;;;;8.45;1.27;;;8.00;99.90;;;;;;4919786;29;20123;-92
2021/10/22 01:15:46;;;;;;;7.05;1.08;;;8.00;99.90;;;;;;4919415;29;20560;-92
2021/10/22 01:18:12;;;;;;;18.55;2.25;;;8.00;99.90;;;;;;4919652;29;20050;-91
2021/10/22 01:20:39;;;;;;;6.97;1.38;;;8.00;99.90;;;;;;4919798;29;20123;-92
2021/10/22 01:23:04;;;;;;;19.63;1.50;;;8.00;99.90;;;;;;4940697;29;20028;-92
2021/10/22 01:25:30;;;;;;;9.13;1.25;;;8.00;99.90;;;;;;4920318;29;20034;-92
2021/10/22 01:27:56;;;;;;;12.63;2.60;;;8.00;99.90;;;;;;4919620;29;20048;-93
2021/10/22 01:30:24;;;;;;;7.60;1.60;;;8.00;99.90;;;;;;4919560;29;20077;-92
2021/10/22 01:33:01;;;;;;;7.43;1.48;;;8.00;99.90;;;;;;4919240;29;20059;-93
2021/10/22 01:35:27;;;;;;;9.60;1.88;;;8.10;99.90;;;;;;4919384;29;20028;-92
2021/10/22 01:37:53;;;;;;;8.13;1.35;;;8.10;99.90;;;;;;4920367;29;20083;-91
2021/10/22 01:40:18;;;;;;;12.35;1.60;;;8.10;99.90;;;;;;4920242;29;20027;-92
2021/10/22 01:42:44;;;;;;;9.07;1.27;;;8.10;99.90;;;;;;4920007;29;20115;-93
2021/10/22 01:45:10;;;;;;;21.08;2.90;;;8.10;99.90;;;;;;4919741;29;20127;-92
2021/10/22 01:47:36;;;;;;;13.20;1.27;;;8.10;99.90;;;;;;4919298;29;20024;-94
2021/10/22 01:50:02;;;;;;;8.80;1.40;;;8.20;99.90;;;;;;4919783;29;20039;-93
2021/10/22 01:52:28;;;;;;;12.48;0.95;;;8.20;99.90;;;;;;4921227;29;20047;-92
2021/10/22 01:54:54;;;;;;;10.07;1.65;;;8.20;99.90;;;;;;4920304;29;20400;-93
2021/10/22 01:57:20;;;;;;;10.57;1.42;;;8.20;99.90;;;;;;4937363;29;20028;-91
2021/10/22 01:59:46;;;;;;;15.38;3.22;;;8.30;99.90;;;;;;4937897;29;20469;-94
2021/10/22 02:02:13;;;;;;;6.72;1.08;;;8.30;99.90;;;;;;4919872;29;20090;-93
2021/10/22 02:04:39;;;;;;;10.35;1.67;;;8.30;99.90;;;;;;4919395;29;20044;-93
2021/10/22 02:07:05;;;;;;;10.93;1.23;;;8.30;99.90;;;;;;4903934;29;20165;-92
2021/10/22 02:09:30;;;;;;;9.45;1.45;;;8.40;99.90;;;;;;4919582;29;20488;-93
2021/10/22 02:11:56;;;;;;;11.38;1.80;;;8.40;99.90;;;;;;4919206;29;20071;-92
2021/10/22 02:14:22;;;;;;;11.27;1.45;;;8.40;99.90;;;;;;4919357;29;20127;-92
2021/10/22 02:16:48;;;;;;;7.45;1.15;;;8.40;99.90;;;;;;4919215;29;20028;-92
2021/10/22 02:19:14;;;;;;;13.23;2.63;;;8.40;99.90;;;;;;4920035;29;20051;-92
2021/10/22 02:21:40;;;;;;;9.35;1.30;;;8.40;99.90;;;;;;4920494;29;20453;-93
2021/10/22 02:24:06;;;;;;;4.53;0.82;;;8.40;99.90;;;;;;4925694;29;20028;-91
2021/10/22 02:26:33;;;;;;;6.45;1.05;;;8.40;99.90;;;;;;4934952;29;20032;-92
2021/10/22 02:29:00;;;;;;;6.05;1.23;;;8.40;99.90;;;;;;4928602;29;20119;-93
2021/10/22 02:31:26;;;;;;;7.32;1.25;;;8.40;99.90;;;;;;4922486;29;20039;-93
2021/10/22 02:33:52;;;;;;;9.98;1.50;;;8.40;99.90;;;;;;4922317;29;20063;-93
2021/10/22 02:36:18;;;;;;;8.77;1.70;;;8.30;99.90;;;;;;4922188;29;20047;-93
2021/10/22 02:38:44;;;;;;;7.80;1.50;;;8.30;99.90;;;;;;4922591;29;20459;-94
2021/10/22 02:41:10;;;;;;;9.65;3.60;;;8.30;99.90;;;;;;4922543;29;20031;-93
2021/10/22 02:43:35;;;;;;;9.55;1.38;;;8.30;99.90;;;;;;4922240;29;20024;-92
2021/10/22 02:46:01;;;;;;;12.65;2.08;;;8.30;99.90;;;;;;4922458;29;20397;-93
2021/10/22 02:48:27;;;;;;;5.18;0.90;;;8.30;99.90;;;;;;4922355;29;20086;-94
2021/10/22 02:50:53;;;;;;;3.90;0.80;;;8.30;99.90;;;;;;4922369;29;20040;-93
2021/10/22 02:53:18;;;;;;;7.55;0.82;;;8.20;99.90;;;;;;4921861;29;20038;-92
2021/10/22 02:55:44;;;;;;;14.00;1.98;;;8.30;99.90;;;;;;4921940;29;20028;-94
2021/10/22 02:58:10;;;;;;;7.47;2.60;;;8.20;99.90;;;;;;4922363;29;20070;-93
2021/10/22 03:00:36;;;;;;;11.38;2.47;;;8.20;99.90;;;;;;4921922;29;20115;-94
2021/10/22 03:03:02;;;;;;;12.35;2.72;;;8.20;99.90;;;;;;4922010;29;20035;-93
2021/10/22 03:05:31;;;;;;;5.65;1.25;;;8.20;99.90;;;;;;4921869;29;20028;-92
2021/10/22 03:07:57;;;;;;;7.35;1.30;;;8.20;99.90;;;;;;4922037;29;20497;-92
2021/10/22 03:10:23;;;;;;;10.35;1.65;;;8.20;99.90;;;;;;4921885;29;20030;-91
2021/10/22 03:12:49;;;;;;;3.55;1.20;;;8.20;99.90;;;;;;4921983;29;20047;-91
2021/10/22 03:15:16;;;;;;;11.48;1.40;;;8.20;99.90;;;;;;4922248;29;20024;-92
2021/10/22 03:17:43;;;;;;;12.85;1.27;;;8.20;99.90;;;;;;4930053;29;20027;-93
2021/10/22 03:20:09;;;;;;;9.55;1.50;;;8.20;99.90;;;;;;4927863;29;20051;-92
2021/10/22 03:22:35;;;;;;;5.30;1.08;;;8.20;99.90;;;;;;4921758;29;20123;-91
2021/10/22 03:25:02;;;;;;;7.70;1.17;;;8.20;99.90;;;;;;4921886;29;20020;-93
2021/10/22 03:27:28;;;;;;;12.32;1.90;;;8.30;99.90;;;;;;4921486;29;20035;-93
2021/10/22 03:29:54;;;;;;;9.13;1.13;;;8.20;99.90;;;;;;4921613;29;20047;-94
2021/10/22 03:32:20;;;;;;;16.42;2.00;;;8.20;99.90;;;;;;4921485;29;20063;-93
2021/10/22 03:34:46;;;;;;;5.03;1.50;;;8.20;99.90;;;;;;4921688;29;20081;-90
2021/10/22 03:37:12;;;;;;;6.05;1.10;;;8.20;99.90;;;;;;4921373;29;20486;-92
2021/10/22 03:39:38;;;;;;;11.68;1.55;;;8.20;99.90;;;;;;4921724;29;20179;-91
2021/10/22 03:42:04;;;;;;;11.40;1.38;;;8.20;99.90;;;;;;4927587;29;20052;-90
2021/10/22 03:44:30;;;;;;;7.55;1.55;;;8.20;99.90;;;;;;4925013;29;20515;-92
2021/10/22 03:46:55;;;;;;;7.05;1.50;;;8.20;99.90;;;;;;4921333;29;20032;-92
2021/10/22 03:49:21;;;;;;;8.70;1.50;;;8.20;99.90;;;;;;4921518;29;20034;-92
2021/10/22 03:51:47;;;;;;;7.55;2.00;;;8.20;99.90;;;;;;4920988;29;20040;-94
2021/10/22 03:54:13;;;;;;;7.00;1.27;;;8.20;99.90;;;;;;4921032;29;20027;-92
2021/10/22 03:56:39;;;;;;;9.07;1.40;;;8.30;99.90;;;;;;4920877;29;20062;-92
2021/10/22 03:59:04;;;;;;;8.93;1.20;;;8.20;99.90;;;;;;4921116;29;20457;-92
2021/10/22 04:01:30;;;;;;;8.02;1.20;;;8.30;99.90;;;;;;4921168;29;20032;-92
2021/10/22 04:03:56;;;;;;;13.75;1.63;;;8.20;99.90;;;;;;4923993;29;20038;-92
2021/10/22 04:06:21;;;;;;;4.63;1.20;;;8.30;99.90;;;;;;4931835;29;20028;-92
2021/10/22 04:08:47;;;;;;;7.90;2.03;;;8.30;99.90;;;;;;4942143;29;20044;-93
2021/10/22 04:11:13;;;;;;;7.30;1.40;;;8.20;99.90;;;;;;4926391;29;20118;-92
2021/10/22 04:13:38;;;;;;;9.43;1.45;;;8.20;99.90;;;;;;4921211;29;20060;-94
2021/10/22 04:16:04;;;;;;;8.07;1.40;;;8.20;99.90;;;;;;4920892;29;20088;-92
2021/10/22 04:18:30;;;;;;;7.63;1.58;;;8.20;99.90;;;;;;4920624;29;20036;-94
2021/10/22 04:20:56;;;;;;;9.40;2.00;;;8.20;99.90;;;;;;4920747;29;20111;-92
2021/10/22 04:23:22;;;;;;;11.38;2.10;;;8.10;99.90;;;;;;4920302;29;20077;-91
2021/10/22 04:25:49;;;;;;;8.25;2.03;;;8.10;99.90;;;;;;4920159;29;20064;-92
2021/10/22 04:28:16;;;;;;;16.52;1.98;;;8.10;99.90;;;;;;4920213;29;20039;-93
2021/10/22 04:30:43;;;;;;;11.23;1.55;;;8.10;99.90;;;;;;4937090;29;20027;-94
2021/10/22 04:33:08;;;;;;;10.18;1.70;;;8.10;99.90;;;;;;4918950;29;20040;-92
2021/10/22 04:35:34;;;;;;;9.25;1.30;;;8.10;99.90;;;;;;4920343;29;20054;-92
2021/10/22 04:40:29;;;;;;;4.93;1.38;;;8.10;99.90;;;;;;4920791;29;20043;-93
2021/10/22 04:40:47;;;;;;;9.13;1.80;;;8.10;99.90;;;;;;4936856;29;20094;-92
2021/10/22 04:43:15;;;;;;;8.00;1.73;;;8.10;99.90;;;;;;4920793;29;20028;-93
2021/10/22 04:45:43;;;;;;;9.63;2.30;;;8.10;99.90;;;;;;4920270;29;20031;-93
2021/10/22 04:48:11;;;;;;;9.23;2.17;;;8.10;99.90;;;;;;4920783;29;20047;-92
2021/10/22 04:50:42;;;;;;;12.98;2.35;;;8.10;99.90;;;;;;4919847;29;20107;-93
2021/10/22 04:53:08;;;;;;;2.30;0.95;;;8.10;99.90;;;;;;4921205;29;20036;-92
2021/10/22 04:55:35;;;;;;;6.30;1.20;;;8.10;99.90;;;;;;4937650;29;20034;-91
2021/10/22 04:58:00;;;;;;;9.55;1.48;;;8.20;99.90;;;;;;4920869;29;20493;-92
2021/10/22 05:00:26;;;;;;;6.20;1.92;;;8.20;99.90;;;;;;4919951;29;20038;-93
2021/10/22 05:02:52;;;;;;;13.57;2.25;;;8.20;99.90;;;;;;4920491;29;20028;-91
2021/10/22 05:05:17;;;;;;;10.05;3.33;;;8.20;99.90;;;;;;4919882;29;20482;-94
2021/10/22 05:07:43;;;;;;;10.57;2.50;;;8.20;99.90;;;;;;4920101;29;20122;-94
2021/10/22 05:10:10;;;;;;;11.00;3.00;;;8.20;99.90;;;;;;4919811;29;20123;-92
2021/10/22 05:12:36;;;;;;;7.43;2.38;;;8.20;99.90;;;;;;4920450;29;20071;-92
2021/10/22 05:15:03;;;;;;;8.85;1.60;;;8.30;99.90;;;;;;4920387;29;20106;-92
2021/10/22 05:17:28;;;;;;;8.95;3.78;;;8.20;99.90;;;;;;4920891;29;20054;-93
2021/10/22 05:19:55;;;;;;;11.13;2.00;;;8.20;99.90;;;;;;4937465;29;20055;-94
2021/10/22 05:22:21;;;;;;;8.95;2.08;;;8.30;99.90;;;;;;4920868;29;20023;-94
2021/10/22 05:24:47;;;;;;;9.32;2.92;;;8.30;99.90;;;;;;4920987;29;20031;-93
2021/10/22 05:27:14;;;;;;;7.75;2.38;;;8.30;99.90;;;;;;4920565;29;20038;-92
2021/10/22 05:29:39;;;;;;;14.70;2.22;;;8.30;99.90;;;;;;4920667;29;20127;-94
2021/10/22 05:32:06;;;;;;;9.43;2.53;;;8.30;99.90;;;;;;4923141;29;20099;-93
2021/10/22 05:34:32;;;;;;;12.57;3.15;;;8.30;99.90;;;;;;4931782;29;20080;-93
2021/10/22 05:36:57;;;;;;;9.90;2.40;;;8.30;99.90;;;;;;4934366;29;20450;-95
2021/10/22 05:39:23;;;;;;;10.65;1.90;;;8.30;99.90;;;;;;4945007;29;20034;-94
2021/10/22 05:41:51;;;;;;;7.00;2.33;;;8.30;99.90;;;;;;4923534;29;20079;-93
2021/10/22 05:44:18;;;;;;;8.43;2.15;;;8.30;99.90;;;;;;4928170;29;20109;-94
2021/10/22 05:46:50;;;;;;;10.32;1.60;;;8.30;99.90;;;;;;4928009;29;20031;-93
2021/10/22 05:49:16;;;;;;;8.43;1.70;;;8.30;99.90;;;;;;4921092;29;20045;-93
2021/10/22 05:51:42;;;;;;;6.55;2.00;;;8.30;99.90;;;;;;4926118;29;20039;-94
2021/10/22 05:54:07;;;;;;;7.35;2.20;;;8.30;99.90;;;;;;4927028;29;20172;-93
2021/10/22 05:56:33;;;;;;;9.68;3.78;;;8.30;99.90;;;;;;4920029;29;20038;-94
2021/10/22 05:58:59;;;;;;;10.93;2.05;;;8.30;99.90;;;;;;4919796;29;20034;-93
2021/10/22 06:01:25;;;;;;;12.55;2.10;;;8.40;99.90;;;;;;4922201;29;20377;-94
2021/10/22 06:03:50;;;;;;;12.23;2.60;;;8.40;99.90;;;;;;4922490;29;20024;-94
2021/10/22 06:06:17;;;;;;;13.25;3.20;;;8.40;99.90;;;;;;4922818;29;20023;-95
2021/10/22 06:08:43;;;;;;;8.90;1.77;;;8.30;99.90;;;;;;4922584;29;20450;-94
2021/10/22 06:11:12;;;;;;;4.60;1.40;;;8.40;99.90;;;;;;4939864;29;20027;-93
2021/10/22 06:13:38;;;;;;;5.68;1.63;;;8.40;99.90;;;;;;4923024;29;20511;-92
2021/10/22 06:16:05;;;;;;;6.40;1.75;;;8.40;99.90;;;;;;4922352;29;20036;-93
2021/10/22 06:18:31;;;;;;;13.50;2.65;;;8.40;99.90;;;;;;4922522;29;20027;-95
2021/10/22 06:21:03;;;;;;;4.43;1.48;;;8.40;99.90;;;;;;4922207;29;20491;-92
2021/10/22 06:26:26;;;;;;;8.68;1.88;;;8.40;99.90;;;;;;4906309;29;20123;-94
2021/10/22 06:28:53;;;;;;;11.35;1.90;;;8.40;99.90;;;;;;4922135;29;20024;-94
2021/10/22 06:31:20;;;;;;;9.85;2.28;;;8.40;99.90;;;;;;4922877;29;20028;-93
2021/10/22 06:33:46;;;;;;;6.32;1.17;;;8.40;99.90;;;;;;4928077;29;20031;-93
2021/10/22 06:36:12;;;;;;;4.22;1.23;;;8.40;99.90;;;;;;4925593;29;20051;-93
2021/10/22 06:38:38;;;;;;;12.57;1.30;;;8.40;99.90;;;;;;4922394;29;20024;-93
2021/10/22 06:41:07;;;;;;;4.25;1.10;;;8.40;99.90;;;;;;4922645;29;20405;-93
2021/10/22 06:43:33;;;;;;;7.47;1.60;;;8.40;99.90;;;;;;4922022;29;20079;-91
2021/10/22 06:45:58;;;;;;;10.50;1.33;;;8.40;99.90;;;;;;4921530;29;20032;-94
2021/10/22 06:48:24;;;;;;;4.15;1.00;;;8.40;99.90;;;;;;4922664;29;20043;-94
2021/10/22 06:50:50;;;;;;;10.73;1.60;;;8.40;99.90;;;;;;4922947;29;20123;-94
2021/10/22 06:53:16;;;;;;;9.65;1.42;;;8.40;99.90;;;;;;4922797;29;20492;-94
2021/10/22 06:55:42;;;;;;;5.10;1.33;;;8.40;99.90;;;;;;4923483;29;20392;-94
2021/10/22 06:58:08;;;;;;;8.45;1.40;;;8.50;99.90;;;;;;4932816;29;20063;-92
2021/10/22 07:00:36;;;;;;;8.15;2.55;;;8.40;99.90;;;;;;4932267;29;20389;-93
2021/10/22 07:03:02;;;;;;;10.48;1.98;;;8.50;99.90;;;;;;4933972;29;20011;-93
2021/10/22 07:07:59;;;;;;;9.63;2.60;;;8.50;99.90;;;;;;4959940;29;20020;-92
2021/10/22 07:10:27;;;;;;;7.13;1.10;;;8.50;99.90;;;;;;4931000;29;20028;-92
2021/10/22 07:12:52;;;;;;;3.78;2.13;;;8.50;99.90;;;;;;4919371;29;20098;-92
2021/10/22 07:15:18;;;;;;;9.70;1.40;;;8.50;99.90;;;;;;4923681;29;20024;-94
2021/10/22 07:17:45;;;;;;;9.85;1.58;;;8.50;99.90;;;;;;4926272;29;20028;-94
2021/10/22 07:20:12;;;;;;;7.18;1.73;;;8.50;99.90;;;;;;4922818;29;20028;-95
2021/10/22 07:22:47;;;;;;;5.53;1.77;;;8.60;99.90;;;;;;4919290;29;20087;-92
2021/10/22 07:25:14;;;;;;;9.90;1.77;;;8.60;99.90;;;;;;4918429;29;20028;-91
2021/10/22 07:27:40;;;;;;;12.40;2.65;;;8.60;99.90;;;;;;4918332;29;20079;-91
2021/10/22 07:30:06;;;;;;;8.55;2.10;;;8.60;99.90;;;;;;4903530;29;20024;-92
2021/10/22 07:32:32;;;;;;;11.05;1.80;;;8.60;99.90;;;;;;4902473;29;20127;-92
2021/10/22 07:34:58;;;;;;;19.23;3.28;;;8.60;99.90;;;;;;4904508;29;20059;-93
2021/10/22 07:37:23;;;;;;;9.88;1.65;;;8.70;99.90;;;;;;4901789;29;20048;-94
2021/10/22 07:39:49;;;;;;;9.75;2.20;;;8.70;99.90;;;;;;4902371;29;20020;-94
2021/10/22 07:42:15;;;;;;;12.18;1.98;;;8.70;99.90;;;;;;4902433;29;20124;-93
2021/10/22 07:44:40;;;;;;;10.27;2.22;;;8.70;99.90;;;;;;4904620;29;20421;-94
2021/10/22 07:47:07;;;;;;;13.30;1.75;;;8.80;99.90;;;;;;4921111;29;20035;-92
2021/10/22 07:49:32;;;;;;;7.28;1.38;;;8.70;99.90;;;;;;4920418;29;20028;-92
2021/10/22 07:51:59;;;;;;;11.73;1.83;;;8.70;99.90;;;;;;4904829;29;20040;-92
2021/10/22 07:54:25;;;;;;;6.65;1.20;;;8.80;99.90;;;;;;4919285;29;20155;-92
2021/10/22 07:56:51;;;;;;;4.88;1.55;;;8.80;99.90;;;;;;4918402;29;20118;-90
2021/10/22 07:59:16;;;;;;;9.77;1.25;;;8.80;99.90;;;;;;4918296;29;20028;-93
2021/10/22 08:01:44;;;;;;;7.53;1.30;;;8.80;99.90;;;;;;4921666;29;20040;-91
2021/10/22 08:04:11;;;;;;;13.85;1.73;;;8.90;99.90;;;;;;4917450;29;20027;-91
2021/10/22 08:06:39;;;;;;;7.18;1.20;;;8.80;99.90;;;;;;4915866;29;20031;-93
2021/10/22 08:09:06;;;;;;;7.10;1.17;;;8.90;99.90;;;;;;4919733;29;20023;-91
2021/10/22 08:11:32;;;;;;;9.43;1.73;;;8.90;99.90;;;;;;4915873;29;20045;-91
2021/10/22 08:13:58;;;;;;;12.07;1.38;;;8.90;99.90;;;;;;4930526;29;20031;-90
2021/10/22 08:16:25;;;;;;;8.68;1.48;;;9.00;99.90;;;;;;4921893;29;20071;-90
2021/10/22 08:18:50;;;;;;;11.30;1.70;;;9.00;99.90;;;;;;4917547;29;20039;-92
2021/10/22 08:21:55;;;;;;;8.60;1.77;;;9.10;99.90;;;;;;4927629;29;20407;-89
2021/10/22 08:24:09;;;;;;;16.77;1.73;;;9.10;99.90;;;;;;4936004;29;20421;-90
2021/10/22 08:26:36;;;;;;;14.10;4.90;;;9.20;99.90;;;;;;4923741;29;20024;-92
2021/10/22 08:29:02;;;;;;;9.77;1.45;;;9.20;99.90;;;;;;4918178;29;20028;-92
2021/10/22 08:31:31;;;;;;;9.80;1.30;;;9.20;99.90;;;;;;4912256;29;20227;-91
2021/10/22 08:33:56;;;;;;;12.07;1.83;;;9.30;99.90;;;;;;4924281;29;20038;-92
2021/10/22 08:36:22;;;;;;;12.25;1.30;;;9.30;99.90;;;;;;4936633;29;20461;-91
2021/10/22 08:38:48;;;;;;;12.70;1.35;;;9.40;99.90;;;;;;4919108;29;20382;-92
2021/10/22 08:41:16;;;;;;;5.97;1.33;;;9.40;99.90;;;;;;4918571;29;20031;-92
2021/10/22 08:43:43;;;;;;;10.75;1.83;;;9.50;99.90;;;;;;4919039;29;20099;-91
2021/10/22 08:46:14;;;;;;;10.27;1.75;;;9.50;99.90;;;;;;4913096;29;20095;-91
2021/10/22 08:48:43;;;;;;;9.05;1.20;;;9.50;99.90;;;;;;4920462;29;20118;-91
2021/10/22 08:51:09;;;;;;;9.35;1.30;;;9.60;99.90;;;;;;4916655;29;20047;-93
2021/10/22 08:53:38;;;;;;;14.07;1.45;;;9.60;99.90;;;;;;4913461;29;20039;-92
2021/10/22 08:56:21;;;;;;;8.68;1.33;;;9.60;99.90;;;;;;5109128;27;20483;-90
2021/10/22 08:58:47;;;;;;;11.43;1.30;;;9.60;99.90;;;;;;5111313;28;20024;-91
2021/10/22 09:01:14;;;;;;;10.27;1.98;;;9.70;99.90;;;;;;5100122;28;20077;-95
2021/10/22 09:03:40;;;;;;;4.72;1.13;;;9.70;99.90;;;;;;5093555;28;20035;-91
2021/10/22 09:06:14;;;;;;;7.95;1.45;;;9.70;99.90;;;;;;5097661;28;20012;-94
2021/10/22 09:08:43;;;;;;;10.32;1.30;;;9.80;99.90;;;;;;5109709;28;20028;-95
2021/10/22 09:11:23;;;;;;;7.93;1.10;;;9.80;99.90;;;;;;5110673;28;20026;-94
2021/10/22 09:14:17;;;;;;;14.52;2.05;;;9.80;99.90;;;;;;5109391;28;20027;-93
2021/10/22 09:16:48;;;;;;;10.07;2.60;;;9.80;99.90;;;;;;5097039;28;20047;-93
2021/10/22 09:19:28;;;;;;;12.05;1.67;;;9.90;99.90;;;;;;5108041;28;20028;-95
2021/10/22 09:21:54;;;;;;;10.23;1.25;;;10.00;99.90;;;;;;5109609;28;20042;-94
2021/10/22 09:24:21;;;;;;;9.60;1.48;;;10.10;99.90;;;;;;5097520;28;20128;-92
2021/10/22 09:26:52;;;;;;;11.23;1.40;;;10.10;99.90;;;;;;5100706;28;20020;-94
2021/10/22 09:29:23;;;;;;;15.82;1.88;;;10.10;99.90;;;;;;5101192;28;20032;-94
2021/10/22 09:31:50;;;;;;;7.07;1.75;;;10.10;99.90;;;;;;5096440;28;20024;-94
2021/10/22 09:34:37;;;;;;;7.63;2.00;;;10.10;99.90;;;;;;5098380;28;20024;-94
2021/10/22 09:37:12;;;;;;;8.07;1.60;;;10.20;99.90;;;;;;5098049;28;20109;-94
2021/10/22 09:39:39;;;;;;;4.43;0.82;;;10.30;99.90;;;;;;5102114;28;20025;-94
2021/10/22 09:42:18;;;;;;;6.43;1.38;;;10.40;99.90;;;;;;5102656;28;20033;-94
2021/10/22 09:44:47;;;;;;;9.57;1.10;;;10.60;99.90;;;;;;5099561;28;20536;-95
2021/10/22 09:47:18;;;;;;;5.07;1.25;;;10.70;99.90;;;;;;5099749;28;20024;-95
2021/10/22 09:49:47;;;;;;;17.17;1.55;;;10.80;99.90;;;;;;5098179;28;20053;-96
2021/10/22 09:52:25;;;;;;;4.50;1.45;;;10.80;99.90;;;;;;5100115;28;20089;-94
2021/10/22 09:55:14;;;;;;;8.50;1.17;;;10.90;99.90;;;;;;5095100;28;20044;-94
2021/10/22 09:57:45;;;;;;;9.65;1.30;;;10.90;99.90;;;;;;5095822;28;20322;-96
2021/10/22 10:00:19;;;;;;;;;;;10.80;99.90;;;;;;5098001;28;20496;-94
2021/10/22 10:02:48;;;;;;;8.73;1.08;;;10.90;99.90;;;;;;5095013;28;19994;-93
2021/10/22 10:05:18;;;;;;;4.72;0.93;;;10.80;99.90;;;;;;5099432;28;20400;-95
2021/10/22 10:07:46;;;;;;;5.93;1.20;;;10.90;99.90;;;;;;5082370;28;20017;-94
2021/10/22 10:10:14;;;;;;;5.47;1.02;;;11.00;99.90;;;;;;5086672;28;20028;-94
2021/10/22 10:12:44;;;;;;;8.90;1.63;;;11.20;99.90;;;;;;5090423;28;20020;-94
2021/10/22 10:15:11;;;;;;;;;;;11.40;99.90;;;;;;5085470;28;20069;-93
2021/10/22 10:17:40;;;;;;;6.25;1.45;;;11.60;99.90;;;;;;5085142;28;19911;-93
2021/10/22 10:20:08;;;;;;;4.57;1.75;;;11.60;99.90;;;;;;5083137;28;20478;-93
2021/10/22 10:22:37;;;;;;;4.68;0.88;;;11.60;99.90;;;;;;5085233;28;20153;-93
2021/10/22 10:25:06;;;;;;;7.60;1.23;;;11.50;99.90;;;;;;5098071;28;20021;-92
2021/10/22 10:27:48;;;;;;;6.25;0.95;;;11.40;99.90;;;;;;5085537;28;20024;-95
2021/10/22 10:30:34;;;;;;;8.40;1.48;;;11.40;99.90;;;;;;5083062;28;20028;-95
2021/10/22 10:33:06;;;;;;;5.93;1.20;;;11.40;99.90;;;;;;5084739;28;20457;-94
2021/10/22 10:35:37;;;;;;;3.92;0.60;;;11.40;99.90;;;;;;5085154;28;20028;-94
2021/10/22 10:38:04;;;;;;;4.65;0.70;;;11.40;99.90;;;;;;5100032;28;20017;-92
2021/10/22 10:40:32;;;;;;;5.18;0.70;;;11.40;99.90;;;;;;5093122;28;20028;-94
2021/10/22 10:43:20;;;;;;;4.00;0.73;;;11.50;99.90;;;;;;5089707;28;20172;-95
2021/10/22 10:45:47;;;;;;;9.20;1.92;;;11.60;99.90;;;;;;5103452;28;20044;-92
2021/10/22 10:48:18;;;;;;;5.78;0.88;;;11.70;99.90;;;;;;5090823;28;20078;-93
2021/10/22 10:51:02;;;;;;;6.28;1.02;;;11.70;99.90;;;;;;5056765;28;20051;-93
2021/10/22 10:53:35;;;;;;;3.45;1.98;;;11.90;99.90;;;;;;5055753;28;20029;-92
2021/10/22 10:56:34;;;;;;;10.55;1.08;;;12.10;99.90;;;;;;5055335;28;20045;-93
2021/10/22 10:59:00;;;;;;;4.82;1.00;;;12.40;99.90;;;;;;5056358;28;20029;-94
2021/10/22 11:01:30;;;;;;;3.75;0.80;;;12.50;99.90;;;;;;5054850;28;20028;-93
2021/10/22 11:03:57;;;;;;;3.38;1.10;;;12.50;99.90;;;;;;5055189;28;20025;-92
2021/10/22 11:06:46;;;;;;;6.55;1.00;;;12.40;99.90;;;;;;5055263;28;20029;-94
2021/10/22 11:09:35;;;;;;;6.15;0.63;;;12.20;99.90;;;;;;5055887;28;20064;-94
2021/10/22 11:12:05;;;;;;;8.32;1.40;;;12.10;99.90;;;;;;5052082;28;20051;-95
2021/10/22 11:14:44;;;;;;;8.67;1.10;;;12.00;99.90;;;;;;5056901;28;20028;-94
2021/10/22 11:17:13;;;;;;;5.78;1.65;;;11.90;99.90;;;;;;5056446;28;20089;-94
2021/10/22 11:19:41;;;;;;;5.40;0.90;;;11.60;99.90;;;;;;5056016;28;20192;-94
2021/10/22 11:22:10;;;;;;;1.48;0.30;;;11.40;99.90;;;;;;5056605;28;20052;-94
2021/10/22 11:24:38;;;;;;;4.63;0.60;;;11.20;99.90;;;;;;5053876;28;20033;-92
2021/10/22 11:27:07;;;;;;;2.95;0.85;;;11.10;99.90;;;;;;5063018;28;20013;-92
2021/10/22 11:29:45;;;;;;;6.30;0.93;;;11.00;99.90;;;;;;5062748;28;20032;-92
2021/10/22 11:32:15;;;;;;;5.40;0.73;;;11.00;99.90;;;;;;5057467;28;20024;-94
2021/10/22 11:34:46;;;;;;;2.35;0.52;;;11.00;99.90;;;;;;5055157;28;20393;-94
2021/10/22 11:37:17;;;;;;;3.03;1.58;;;11.00;99.90;;;;;;5054982;28;20143;-92
2021/10/22 11:39:54;;;;;;;2.67;0.45;;;11.00;99.90;;;;;;5054617;28;20105;-93
2021/10/22 11:42:33;;;;;;;4.70;0.70;;;11.00;99.90;;;;;;5055296;28;20025;-93
2021/10/22 11:45:12;;;;;;;1.67;0.32;;;11.00;99.90;;;;;;5054225;28;20500;-93
2021/10/22 11:47:43;;;;;;;4.30;1.08;;;11.00;99.90;;;;;;5056804;28;20290;-93
2021/10/22 11:50:10;;;;;;;;;;;10.90;99.90;;;;;;5057560;28;20029;-93
2021/10/22 11:52:36;;;;;;;6.40;1.27;;;11.00;99.90;;;;;;5061663;28;19912;-95
2021/10/22 11:55:03;;;;;;;3.65;0.75;;;11.00;99.90;;;;;;5058851;28;20049;-93
2021/10/22 11:57:33;;;;;;;3.88;0.73;;;10.90;99.90;;;;;;5060365;28;20020;-93
2021/10/22 11:59:59;;;;;;;4.82;0.70;;;11.00;99.90;;;;;;5065140;28;20107;-95
2021/10/22 12:02:28;;;;;;;2.90;0.75;;;11.00;99.90;;;;;;5082575;28;20111;-94
2021/10/22 12:05:06;;;;;;;5.35;0.65;;;11.00;99.90;;;;;;5069834;28;20023;-92
2021/10/22 12:07:39;;;;;;;5.47;0.80;;;11.00;99.90;;;;;;5071111;28;20020;-94
2021/10/22 12:10:09;;;;;;;3.55;0.55;;;11.00;99.90;;;;;;5071633;28;20447;-94
2021/10/22 12:12:38;;;;;;;1.70;0.40;;;11.00;99.90;;;;;;5073419;28;20512;-94
2021/10/22 12:15:08;;;;;;;2.47;0.32;;;11.10;99.90;;;;;;5074837;28;20036;-93
2021/10/22 12:17:35;;;;;;;2.85;0.40;;;11.10;99.90;;;;;;5075794;28;20025;-93
2021/10/22 12:20:05;;;;;;;1.55;0.45;;;11.10;99.90;;;;;;5086748;28;20035;-93
2021/10/22 12:22:39;;;;;;;8.55;0.82;;;11.20;99.90;;;;;;5081406;28;20432;-94
2021/10/22 12:25:17;;;;;;;5.43;0.73;;;11.10;99.90;;;;;;5073190;28;20067;-94
2021/10/22 12:27:51;;;;;;;2.53;0.63;;;11.10;99.90;;;;;;5074409;28;20546;-95
2021/10/22 12:30:19;;;;;;;3.95;0.80;;;11.00;99.90;;;;;;5073714;28;20497;-94
2021/10/22 12:32:48;;;;;;;3.67;0.55;;;11.00;99.90;;;;;;5073515;28;20020;-94
2021/10/22 12:35:22;;;;;;;4.38;0.60;;;10.90;99.90;;;;;;5074672;28;20474;-94
2021/10/22 12:38:07;;;;;;;4.28;0.55;;;10.90;99.90;;;;;;5073203;28;20021;-94
2021/10/22 12:40:42;;;;;;;2.28;1.02;;;10.80;99.90;;;;;;5074994;28;20029;-94
2021/10/22 12:43:17;;;;;;;2.03;0.60;;;10.70;99.90;;;;;;5075485;28;20020;-94
2021/10/22 12:45:48;;;;;;;2.33;0.35;;;10.70;99.90;;;;;;5074628;28;20103;-94
2021/10/22 12:48:14;;;;;;;;;;;10.70;99.90;;;;;;5073581;28;20033;-93
2021/10/22 12:50:40;;;;;;;1.40;0.32;;;10.70;99.90;;;;;;5106472;28;19955;-94
2021/10/22 12:53:12;;;;;;;1.35;0.40;;;10.70;99.90;;;;;;5073792;28;20027;-94
2021/10/22 12:55:38;;;;;;;2.92;0.40;;;10.80;99.90;;;;;;5073141;28;20048;-94
2021/10/22 12:58:17;;;;;;;0.50;0.30;;;10.90;99.90;;;;;;5076548;28;20013;-92
2021/10/22 13:00:44;;;;;;;2.08;0.28;;;11.00;99.90;;;;;;5073143;28;20029;-94
2021/10/22 13:03:11;;;;;;;1.70;0.38;;;11.00;99.90;;;;;;5073003;28;20043;-93